Time;durP1;ratioP1;P1;durP2;ratioP2;P2;SDS_P1;SDS_P2;PMS_P1;PMS_P2;Temp;Humidity;BMP_temperature;BMP_pressure;BME280_temperature;BME280_humidity;BME280_pressure;Samples;Min_cycle;Max_cycle;Signal;HPM_P1;HPM_P2
2023/09/18 00:01:19;;;;;;;11.15;8.08;;;;;;;19.07;82.13;100499.32;1758822;81;27865;-57
2023/09/18 00:03:47;;;;;;;10.80;8.40;;;;;;;19.04;82.05;100494.78;1758677;81;25511;-58
2023/09/18 00:06:15;;;;;;;13.72;7.53;;;;;;;19.01;82.04;100498.83;1758728;81;25458;-55
2023/09/18 00:08:43;;;;;;;11.35;8.43;;;;;;;18.93;81.85;100493.77;1758692;81;25494;-54
2023/09/18 00:11:11;;;;;;;10.82;8.05;;;;;;;18.88;81.98;100491.31;1758814;81;25401;-57
2023/09/18 00:13:40;;;;;;;9.53;8.35;;;;;;;18.79;81.76;100486.02;1758848;81;28030;-57
2023/09/18 00:16:06;;;;;;;11.22;8.88;;;;;;;18.73;81.95;100486.66;1758652;81;25454;-57
2023/09/18 00:18:32;;;;;;;11.55;9.28;;;;;;;18.64;81.95;100488.25;1758731;81;25667;-57
2023/09/18 00:21:00;;;;;;;10.00;8.88;;;;;;;18.56;82.03;100484.58;1758570;79;25950;-57
2023/09/18 00:23:26;;;;;;;10.38;8.98;;;;;;;18.50;81.97;100487.37;1758767;81;25569;-55
2023/09/18 00:25:53;;;;;;;11.53;9.55;;;;;;;18.43;82.40;100484.48;1758815;81;27464;-57
2023/09/18 00:28:19;;;;;;;11.05;8.85;;;;;;;18.35;82.26;100482.14;1758768;81;25426;-57
2023/09/18 00:30:50;;;;;;;10.72;9.10;;;;;;;18.27;82.39;100488.63;1758874;81;25543;-56
2023/09/18 00:33:20;;;;;;;11.28;8.95;;;;;;;18.20;82.38;100487.08;1758887;81;25525;-54
2023/09/18 00:35:56;;;;;;;13.20;9.18;;;;;;;18.13;82.70;100489.66;1758889;81;25394;-57
2023/09/18 00:38:22;;;;;;;11.83;8.88;;;;;;;18.04;82.55;100489.84;1758858;81;27565;-58
2023/09/18 00:40:49;;;;;;;11.48;8.63;;;;;;;17.97;82.62;100495.16;1758928;81;25446;-58
2023/09/18 00:43:17;;;;;;;12.50;9.25;;;;;;;17.91;82.70;100487.77;1758833;81;25537;-55
2023/09/18 00:45:49;;;;;;;9.63;8.63;;;;;;;17.88;82.78;100496.12;1758865;81;25535;-57
2023/09/18 00:48:19;;;;;;;10.60;9.50;;;;;;;17.81;82.67;100491.82;1759009;81;25387;-54
2023/09/18 00:51:25;;;;;;;12.03;8.68;;;;;;;17.81;83.18;100490.45;1758882;81;27484;-58
2023/09/18 00:53:54;;;;;;;15.80;8.95;;;;;;;17.77;83.12;100484.66;1697394;82;25794;-54
2023/09/18 00:56:21;;;;;;;10.00;8.93;;;;;;;17.74;83.43;100487.52;1696168;84;25654;-58
2023/09/18 00:58:48;;;;;;;12.40;8.35;;;;;;;17.70;83.29;100485.28;1696005;84;25699;-57
2023/09/18 01:01:23;;;;;;;16.87;9.05;;;;;;;17.66;83.62;100489.30;1695974;84;25645;-57
2023/09/18 01:03:53;;;;;;;14.60;9.58;;;;;;;17.63;83.94;100489.20;1695965;84;27513;-56
2023/09/18 01:06:21;;;;;;;12.80;8.88;;;;;;;17.58;83.76;100496.30;1696168;84;25628;-56
2023/09/18 01:08:53;;;;;;;14.90;8.83;;;;;;;17.53;83.56;100496.77;1696009;84;25579;-57
2023/09/18 01:11:28;;;;;;;13.60;8.83;;;;;;;17.50;83.95;100498.05;1692474;84;25787;-56
2023/09/18 01:14:10;;;;;;;9.80;8.63;;;;;;;17.45;84.11;100501.03;1696329;84;25456;-55
2023/09/18 01:17:01;;;;;;;14.75;9.80;;;;;;;17.39;84.53;100497.77;1693950;83;27488;-57
2023/09/18 01:19:46;;;;;;;12.90;9.10;;;;;;;17.32;84.29;100488.80;1721130;83;25447;-56
2023/09/18 01:22:22;;;;;;;12.35;10.60;;;;;;;17.28;84.32;100493.39;1721095;83;25559;-55
2023/09/18 01:24:50;;;;;;;13.15;9.73;;;;;;;17.23;85.15;100497.75;1727098;82;25596;-58
2023/09/18 01:27:18;;;;;;;12.28;9.60;;;;;;;17.19;85.27;100492.73;1727028;83;25596;-54
2023/09/18 01:29:50;;;;;;;11.03;9.78;;;;;;;17.13;85.16;100492.20;1727009;82;27486;-56
2023/09/18 01:32:18;;;;;;;14.00;10.78;;;;;;;17.09;85.34;100486.41;1727110;82;25621;-57
2023/09/18 01:34:52;;;;;;;11.33;10.03;;;;;;;17.06;85.45;100491.20;1727088;83;25541;-58
2023/09/18 01:37:24;;;;;;;14.03;9.53;;;;;;;17.02;85.45;100493.05;1727185;82;25519;-57
2023/09/18 01:39:53;;;;;;;12.28;10.32;;;;;;;16.98;85.24;100497.05;1727185;83;25423;-58
2023/09/18 01:42:21;;;;;;;14.63;10.60;;;;;;;16.95;85.62;100501.83;1726979;83;27592;-57
2023/09/18 01:44:54;;;;;;;11.20;9.73;;;;;;;16.90;85.42;100501.50;1726899;83;25904;-57
2023/09/18 01:47:24;;;;;;;12.10;9.73;;;;;;;16.87;85.46;100494.58;1727177;83;25653;-57
2023/09/18 01:49:52;;;;;;;11.75;9.83;;;;;;;16.84;85.98;100491.13;1727180;83;25639;-57
2023/09/18 01:52:20;;;;;;;13.90;10.40;;;;;;;16.79;86.22;100491.61;1730740;82;25610;-57
2023/09/18 01:54:50;;;;;;;13.08;10.90;;;;;;;16.76;86.34;100489.56;1741504;82;27397;-58
2023/09/18 01:57:17;;;;;;;14.80;10.65;;;;;;;16.73;86.27;100488.88;1741452;82;25932;-57
2023/09/18 01:59:44;;;;;;;12.53;11.22;;;;;;;16.72;86.60;100487.86;1741521;82;25379;-57
2023/09/18 02:02:11;;;;;;;14.30;10.08;;;;;;;16.70;86.63;100483.32;1741372;82;25506;-57
2023/09/18 02:04:39;;;;;;;13.65;10.80;;;;;;;16.66;86.46;100477.77;1741520;82;25615;-53
2023/09/18 02:07:07;;;;;;;14.07;10.30;;;;;;;16.64;86.61;100480.05;1741491;82;27549;-57
2023/09/18 02:09:35;;;;;;;11.70;10.55;;;;;;;16.62;86.50;100481.75;1741314;82;25582;-56
2023/09/18 02:12:02;;;;;;;16.15;10.53;;;;;;;16.60;86.50;100480.50;1741466;82;25588;-57
2023/09/18 02:14:30;;;;;;;12.88;9.90;;;;;;;16.59;86.66;100476.19;1741367;82;25532;-56
2023/09/18 02:16:59;;;;;;;14.30;10.88;;;;;;;16.56;86.84;100473.56;1741559;82;25446;-56
2023/09/18 02:19:27;;;;;;;13.15;9.70;;;;;;;16.55;87.21;100472.55;1741451;82;27470;-56
2023/09/18 02:21:57;;;;;;;11.65;9.80;;;;;;;16.53;87.08;100470.19;1713958;82;25561;-54
2023/09/18 02:24:23;;;;;;;14.23;9.83;;;;;;;16.52;87.26;100471.89;1741131;82;25631;-55
2023/09/18 02:26:50;;;;;;;16.77;9.98;;;;;;;16.50;87.58;100465.41;1741489;82;25693;-55
2023/09/18 02:29:16;;;;;;;14.33;11.63;;;;;;;16.50;87.73;100468.69;1741537;82;25707;-56
2023/09/18 02:31:42;;;;;;;16.77;11.28;;;;;;;16.49;88.21;100473.94;1741454;82;27460;-54
2023/09/18 02:34:08;;;;;;;13.50;10.82;;;;;;;16.48;88.25;100466.33;1741417;82;27285;-56
2023/09/18 02:36:36;;;;;;;11.95;10.60;;;;;;;16.48;88.28;100464.15;1741425;82;25411;-56
2023/09/18 02:39:05;;;;;;;14.60;10.93;;;;;;;16.48;88.07;100464.15;1741422;82;25645;-56
2023/09/18 02:41:31;;;;;;;12.93;10.88;;;;;;;16.49;88.48;100460.29;1741594;82;25406;-55
2023/09/18 02:43:58;;;;;;;15.63;10.43;;;;;;;16.49;88.91;100459.70;1741364;82;27535;-57
2023/09/18 02:46:24;;;;;;;13.75;11.55;;;;;;;16.51;89.08;100457.42;1741350;82;25599;-56
2023/09/18 02:48:51;;;;;;;13.95;10.90;;;;;;;16.52;89.17;100457.66;1741405;82;25541;-56
2023/09/18 02:51:17;;;;;;;12.88;10.43;;;;;;;16.53;89.23;100463.36;1741383;82;25551;-56
2023/09/18 02:53:43;;;;;;;15.48;11.88;;;;;;;16.54;89.28;100466.88;1743360;82;25488;-56
2023/09/18 02:56:09;;;;;;;14.73;12.55;;;;;;;16.55;89.74;100461.63;1744467;82;27612;-54
2023/09/18 02:58:35;;;;;;;12.85;11.55;;;;;;;16.54;89.79;100458.11;1744335;82;25549;-54
2023/09/18 03:01:08;;;;;;;17.80;12.55;;;;;;;16.55;90.04;100461.07;1744431;82;25564;-56
2023/09/18 03:03:35;;;;;;;14.58;11.38;;;;;;;16.57;90.12;100460.73;1744294;82;25637;-56
2023/09/18 03:06:06;;;;;;;13.65;11.78;;;;;;;16.55;90.32;100455.61;1744423;82;25458;-56
2023/09/18 03:08:34;;;;;;;13.10;11.50;;;;;;;16.56;90.41;100454.45;1744503;82;33207;-56
2023/09/18 03:11:03;;;;;;;15.68;11.35;;;;;;;16.57;90.65;100451.96;1744240;82;25594;-56
2023/09/18 03:13:35;;;;;;;14.60;11.88;;;;;;;16.58;90.83;100450.83;1744304;82;25565;-54
2023/09/18 03:16:01;;;;;;;16.60;12.05;;;;;;;16.58;90.87;100450.02;1744398;82;25539;-53
2023/09/18 03:18:27;;;;;;;17.20;11.45;;;;;;;16.58;91.00;100454.11;1744403;82;25483;-56
2023/09/18 03:20:53;;;;;;;16.93;10.85;;;;;;;16.57;90.90;100452.54;1744255;82;27452;-55
2023/09/18 03:23:20;;;;;;;14.70;12.07;;;;;;;16.58;91.13;100456.30;1744196;82;25584;-53
2023/09/18 03:25:48;;;;;;;15.98;12.10;;;;;;;16.58;91.09;100460.39;1744445;82;25621;-56
2023/09/18 03:28:14;;;;;;;13.55;11.10;;;;;;;16.59;91.29;100454.34;1744385;82;27620;-56
2023/09/18 03:30:40;;;;;;;12.93;11.48;;;;;;;16.58;91.26;100449.47;1744366;82;25579;-55
2023/09/18 03:33:10;;;;;;;12.35;11.15;;;;;;;16.59;91.44;100453.77;1744462;82;27594;-56
2023/09/18 03:35:54;;;;;;;12.90;11.20;;;;;;;16.60;91.36;100460.83;1744468;82;25758;-56
2023/09/18 03:38:21;;;;;;;;;;;;;;;16.60;91.52;100460.02;1747047;82;25581;-56
2023/09/18 03:40:47;;;;;;;14.38;12.60;;;;;;;16.60;91.87;100451.83;1744369;82;25623;-56
2023/09/18 03:43:13;;;;;;;15.05;12.23;;;;;;;16.59;91.92;100449.67;1744392;82;25642;-56
2023/09/18 03:45:41;;;;;;;13.80;12.05;;;;;;;16.62;92.18;100457.17;1744262;81;27133;-56
2023/09/18 03:48:07;;;;;;;14.35;12.75;;;;;;;16.63;92.17;100455.23;1744299;82;25384;-56
2023/09/18 03:50:36;;;;;;;13.13;11.48;;;;;;;16.66;92.12;100456.49;1744373;82;25367;-56
2023/09/18 03:53:05;;;;;;;15.15;12.70;;;;;;;16.67;92.13;100462.16;1744090;81;25499;-54
2023/09/18 03:55:31;;;;;;;16.87;11.57;;;;;;;16.67;92.36;100458.88;1744567;81;25446;-57
2023/09/18 03:58:00;;;;;;;14.90;11.65;;;;;;;16.69;91.94;100460.69;1744390;82;27467;-56
2023/09/18 04:00:27;;;;;;;12.28;10.90;;;;;;;16.69;92.03;100457.95;1744339;82;25592;-56
2023/09/18 04:02:53;;;;;;;14.63;11.78;;;;;;;16.71;92.39;100454.30;1744405;82;26798;-56
2023/09/18 04:05:20;;;;;;;13.93;11.75;;;;;;;16.76;92.43;100455.42;1744497;81;26085;-56
2023/09/18 04:07:46;;;;;;;14.68;11.60;;;;;;;16.79;92.54;100453.95;1744594;82;25607;-56
2023/09/18 04:10:22;;;;;;;14.18;11.15;;;;;;;16.79;92.25;100447.13;1719274;82;28136;-55
2023/09/18 04:12:46;;;;;;;13.30;10.63;;;;;;;16.80;92.38;100448.70;1742408;82;25549;-55
2023/09/18 04:15:18;;;;;;;15.48;10.88;;;;;;;16.83;92.33;100447.22;1744555;82;25563;-53
2023/09/18 04:17:48;;;;;;;13.08;11.40;;;;;;;16.84;92.48;100451.00;1744480;82;25492;-55
2023/09/18 04:20:20;;;;;;;16.42;12.70;;;;;;;16.87;92.28;100446.19;1744588;82;25619;-56
2023/09/18 04:22:53;;;;;;;14.07;12.25;;;;;;;16.89;92.26;100451.30;1744570;81;27468;-57
2023/09/18 04:25:22;;;;;;;14.60;11.83;;;;;;;16.88;92.17;100453.83;1741807;82;25545;-55
2023/09/18 04:27:51;;;;;;;14.75;11.97;;;;;;;16.87;92.10;100449.50;1744514;82;25568;-56
2023/09/18 04:30:19;;;;;;;14.30;12.15;;;;;;;16.85;92.16;100449.06;1743432;82;25544;-56
2023/09/18 04:32:44;;;;;;;14.15;11.60;;;;;;;16.83;92.32;100450.73;1741699;82;25426;-56
2023/09/18 04:35:13;;;;;;;22.67;17.37;;;;;;;16.80;92.13;100450.87;1744521;82;27470;-56
2023/09/18 04:37:40;;;;;;;15.20;11.73;;;;;;;16.80;92.32;100446.78;1744457;82;25543;-51
2023/09/18 04:40:12;;;;;;;14.80;12.68;;;;;;;16.80;92.58;100439.95;1744553;81;25611;-52
2023/09/18 04:42:42;;;;;;;14.68;12.37;;;;;;;16.84;92.72;100439.23;1744374;82;25549;-53
2023/09/18 04:45:12;;;;;;;15.55;12.10;;;;;;;16.86;92.82;100435.63;1744453;82;25604;-53
2023/09/18 04:47:38;;;;;;;15.13;11.60;;;;;;;16.85;93.14;100434.81;1744662;81;29692;-52
2023/09/18 04:50:11;;;;;;;13.62;12.23;;;;;;;16.87;92.99;100431.74;1744411;82;27443;-51
2023/09/18 04:52:40;;;;;;;14.75;12.43;;;;;;;16.89;93.08;100434.91;1744540;82;25402;-53
2023/09/18 04:55:08;;;;;;;14.98;11.78;;;;;;;16.90;93.06;100437.88;1744400;82;25591;-54
2023/09/18 04:57:35;;;;;;;16.90;12.50;;;;;;;16.92;93.24;100435.59;1743780;82;25599;-52
2023/09/18 05:00:13;;;;;;;15.55;12.55;;;;;;;16.90;92.86;100433.78;1743555;82;28118;-56
2023/09/18 05:02:42;;;;;;;17.15;12.95;;;;;;;16.88;92.93;100430.61;1666810;85;25640;-51
2023/09/18 05:05:10;;;;;;;16.52;13.28;;;;;;;16.90;93.40;100431.84;1697135;84;25461;-51
2023/09/18 05:07:36;;;;;;;15.83;13.40;;;;;;;16.93;93.56;100430.36;1696159;84;25558;-51
2023/09/18 05:10:11;;;;;;;14.98;13.35;;;;;;;16.96;93.77;100427.72;1697251;84;25661;-54
2023/09/18 05:12:41;;;;;;;14.33;12.82;;;;;;;16.99;94.00;100423.48;1695985;84;29700;-55
2023/09/18 05:15:12;;;;;;;16.40;13.38;;;;;;;17.01;93.70;100423.13;1696263;84;25741;-57
2023/09/18 05:17:47;;;;;;;18.82;12.90;;;;;;;17.04;94.09;100423.23;1695890;84;25503;-57
2023/09/18 05:20:17;;;;;;;15.60;12.85;;;;;;;17.07;94.27;100418.44;1697078;84;25618;-57
2023/09/18 05:22:47;;;;;;;14.85;12.65;;;;;;;17.12;94.55;100416.03;1696010;84;25620;-57
2023/09/18 05:25:15;;;;;;;16.55;13.25;;;;;;;17.14;94.42;100414.52;1697004;84;27546;-57
2023/09/18 05:27:47;;;;;;;16.82;13.35;;;;;;;17.16;94.10;100409.52;1695969;84;25511;-57
2023/09/18 05:30:23;;;;;;;18.42;13.65;;;;;;;17.20;94.46;100399.23;1696906;84;25385;-56
2023/09/18 05:32:49;;;;;;;16.10;13.00;;;;;;;17.24;94.80;100403.65;1697012;84;27661;-57
2023/09/18 05:35:16;;;;;;;16.70;13.70;;;;;;;17.28;94.64;100404.55;1696038;84;25806;-57
2023/09/18 05:37:43;;;;;;;20.57;14.58;;;;;;;17.34;94.88;100399.61;1696986;84;27431;-57
2023/09/18 05:40:14;;;;;;;15.08;13.18;;;;;;;17.36;94.96;100396.73;1695908;84;25560;-57
2023/09/18 05:42:45;;;;;;;19.67;14.50;;;;;;;17.42;94.94;100393.73;1696920;84;25396;-56
2023/09/18 05:45:16;;;;;;;19.27;15.10;;;;;;;17.47;94.99;100393.47;1695915;84;27754;-58
2023/09/18 05:47:42;;;;;;;17.30;14.30;;;;;;;17.52;95.02;100380.89;1697017;84;25622;-56
2023/09/18 05:50:15;;;;;;;17.70;14.70;;;;;;;17.55;95.17;100387.84;1695900;84;29641;-55
2023/09/18 05:52:52;;;;;;;16.45;14.05;;;;;;;17.62;95.00;100383.67;1696768;84;25594;-56
2023/09/18 05:55:17;;;;;;;20.20;14.80;;;;;;;17.64;95.22;100374.53;1669317;84;25783;-58
2023/09/18 05:57:43;;;;;;;15.53;13.83;;;;;;;17.71;95.43;100376.88;1698863;84;25633;-58
2023/09/18 06:00:17;;;;;;;16.30;14.38;;;;;;;17.73;95.05;100375.94;1670829;85;25692;-58
2023/09/18 06:02:43;;;;;;;16.45;14.35;;;;;;;17.80;94.98;100378.63;1697687;84;27379;-58
2023/09/18 06:05:12;;;;;;;18.32;14.75;;;;;;;17.85;94.92;100381.09;1695564;84;25613;-58
2023/09/18 06:07:39;;;;;;;17.07;15.28;;;;;;;17.88;94.87;100378.47;1698768;84;25614;-58
2023/09/18 06:10:11;;;;;;;20.62;14.95;;;;;;;17.93;94.89;100376.04;1670755;85;25491;-57
2023/09/18 06:12:43;;;;;;;20.23;14.23;;;;;;;17.97;94.50;100381.00;1699517;84;25485;-59
2023/09/18 06:15:12;;;;;;;17.82;14.47;;;;;;;18.01;94.55;100373.66;1695558;84;27506;-58
2023/09/18 06:17:44;;;;;;;17.92;15.10;;;;;;;18.09;95.17;100370.52;1698771;84;25957;-58
2023/09/18 06:20:15;;;;;;;19.17;15.20;;;;;;;18.15;95.05;100377.86;1670782;85;25621;-55
2023/09/18 06:22:43;;;;;;;20.02;15.28;;;;;;;18.20;94.67;100374.28;1699467;84;25923;-58
2023/09/18 06:25:10;;;;;;;15.93;14.23;;;;;;;18.24;94.56;100374.36;1695566;84;25453;-58
2023/09/18 06:27:42;;;;;;;18.75;14.58;;;;;;;18.35;94.96;100381.41;1698873;84;28599;-56
2023/09/18 06:30:16;;;;;;;17.55;15.65;;;;;;;18.45;95.76;100375.36;1670846;85;25645;-58
2023/09/18 06:32:44;;;;;;;20.52;16.60;;;;;;;18.59;95.68;100375.67;1699500;84;25805;-57
2023/09/18 06:35:11;;;;;;;18.00;15.70;;;;;;;18.76;95.86;100369.51;1695650;84;25553;-57
2023/09/18 06:37:39;;;;;;;19.55;16.10;;;;;;;18.95;96.39;100375.56;1698931;84;25431;-57
2023/09/18 06:40:12;;;;;;;22.07;16.35;;;;;;;19.24;98.17;100364.54;1670850;84;27530;-57
2023/09/18 06:42:39;;;;;;;19.65;14.70;;;;;;;19.52;98.10;100367.53;1699412;84;26017;-56
2023/09/18 06:45:13;;;;;;;17.07;12.98;;;;;;;19.84;96.90;100370.00;1695693;84;25527;-56
2023/09/18 06:47:41;;;;;;;19.70;14.15;;;;;;;20.04;94.04;100372.84;1699034;84;25516;-56
2023/09/18 06:50:11;;;;;;;18.75;13.93;;;;;;;20.11;92.57;100377.64;1670924;85;25215;-58
2023/09/18 06:52:38;;;;;;;18.30;13.65;;;;;;;20.18;92.46;100382.44;1699526;84;27700;-58
2023/09/18 06:55:10;;;;;;;16.57;14.10;;;;;;;20.26;92.18;100373.91;1730009;81;25706;-58
2023/09/18 06:57:37;;;;;;;16.52;14.83;;;;;;;20.47;94.08;100378.87;1750621;81;25609;-55
2023/09/18 07:00:20;;;;;;;19.30;13.78;;;;;;;20.81;94.65;100372.61;1728960;82;25830;-57
2023/09/18 07:02:45;;;;;;;20.65;14.80;;;;;;;21.09;93.39;100372.09;1765798;81;25430;-58
2023/09/18 07:05:11;;;;;;;18.67;13.08;;;;;;;21.40;93.69;100375.49;1765829;81;27816;-58
2023/09/18 07:07:38;;;;;;;15.68;12.95;;;;;;;21.71;91.50;100363.19;1741881;81;25676;-58
2023/09/18 07:10:11;;;;;;;16.27;12.33;;;;;;;21.96;89.79;100367.48;1765900;81;25246;-58
2023/09/18 07:12:39;;;;;;;17.85;13.53;;;;;;;22.24;89.63;100361.91;1765806;81;25625;-59
2023/09/18 07:15:11;;;;;;;17.37;12.37;;;;;;;22.64;89.50;100368.96;1766042;81;25198;-59
2023/09/18 07:17:37;;;;;;;14.07;12.55;;;;;;;22.96;86.98;100369.63;1765807;81;27364;-58
2023/09/18 07:20:16;;;;;;;14.28;12.10;;;;;;;23.18;86.31;100363.58;1765782;81;25562;-57
2023/09/18 07:22:58;;;;;;;14.43;11.73;;;;;;;23.52;85.96;100367.32;1765880;81;25682;-58
2023/09/18 07:25:26;;;;;;;14.83;12.05;;;;;;;23.94;85.03;100367.06;1763823;81;25573;-65
2023/09/18 07:27:52;;;;;;;17.48;13.90;;;;;;;24.31;82.69;100367.92;1765852;81;25506;-64
2023/09/18 07:30:26;;;;;;;17.12;14.73;;;;;;;24.63;81.76;100373.93;1765009;81;27539;-65
2023/09/18 07:32:57;;;;;;;15.13;12.63;;;;;;;24.84;78.74;100373.61;1765719;81;25430;-64
2023/09/18 07:35:29;;;;;;;14.87;12.35;;;;;;;25.09;77.61;100372.06;1765938;81;25547;-63
2023/09/18 07:37:55;;;;;;;14.70;11.95;;;;;;;25.21;75.78;100370.80;1765922;81;25602;-64
2023/09/18 07:40:22;;;;;;;15.13;11.83;;;;;;;25.47;76.80;100366.06;1766034;81;25718;-64
2023/09/18 07:42:53;;;;;;;14.43;11.55;;;;;;;25.90;76.12;100373.16;1766371;81;27488;-64
2023/09/18 08:45:01;;;;;;;11.63;10.50;;;;;;;30.50;54.74;100331.94;1868338;76;25475;-64
2023/09/18 08:47:31;;;;;;;11.30;10.05;;;;;;;30.42;53.65;100329.20;1756958;81;25598;-62
2023/09/18 08:50:07;;;;;;;10.85;9.73;;;;;;;30.31;53.11;100335.70;1771138;81;27517;-63
2023/09/18 08:52:37;;;;;;;12.58;10.38;;;;;;;30.51;53.40;100327.13;1756889;81;25584;-63
2023/09/18 11:08:28;;;;;;;3.67;3.37;;;;;;;33.01;34.49;100205.17;1887049;76;25490;-58
2023/09/18 11:11:04;;;;;;;3.62;3.12;;;;;;;32.76;35.13;100204.88;1857861;77;25561;-61
2023/09/18 11:13:36;;;;;;;7.42;3.58;;;;;;;32.79;34.37;100196.15;1854838;77;27548;-60
2023/09/18 11:16:15;;;;;;;5.60;3.25;;;;;;;32.61;34.70;100190.69;1857759;77;25514;-61
2023/09/18 11:18:43;;;;;;;3.47;3.20;;;;;;;32.95;35.16;100209.86;1857256;77;25461;-61
2023/09/18 11:21:17;;;;;;;4.83;3.62;;;;;;;32.95;35.16;100209.86;1821142;77;35195;-59
2023/09/18 11:23:46;;;;;;;4.65;4.25;;;;;;;33.05;34.62;100184.81;1858099;77;25378;-60
2023/09/18 11:26:16;;;;;;;4.00;3.70;;;;;;;33.01;34.81;100179.20;1857837;77;27545;-60
2023/09/18 11:28:46;;;;;;;9.20;8.35;;;;;;;33.15;34.55;100180.62;1858062;77;25490;-62
2023/09/18 11:31:14;;;;;;;10.78;9.88;;;;;;;33.11;34.69;100176.55;1727190;81;25683;-62
2023/09/18 11:33:44;;;;;;;7.15;5.37;;;;;;;33.13;34.51;100193.06;1788004;80;32335;-64
2023/09/18 11:36:25;;;;;;;4.72;4.42;;;;;;;32.91;34.18;100182.61;1756932;81;25459;-63
2023/09/18 11:39:03;;;;;;;5.30;4.50;;;;;;;32.87;34.30;100176.41;1787243;80;27498;-63
2023/09/18 11:41:32;;;;;;;7.65;4.80;;;;;;;32.85;34.93;100173.30;1752806;81;25732;-62
2023/09/18 11:44:31;;;;;;;5.42;4.80;;;;;;;33.11;34.69;100173.11;1786838;80;26278;-62
2023/09/18 11:47:00;;;;;;;5.67;4.60;;;;;;;33.16;34.11;100170.98;1756754;81;25717;-62
2023/09/18 11:49:31;;;;;;;5.70;5.20;;;;;;;33.17;34.32;100173.92;1788111;80;25694;-62
2023/09/18 11:52:01;;;;;;;6.47;5.55;;;;;;;33.06;33.89;100179.34;1756699;81;29658;-63
2023/09/18 11:54:31;;;;;;;5.70;5.20;;;;;;;32.73;34.42;100168.77;1787902;80;25433;-61
2023/09/18 11:57:07;;;;;;;7.55;5.45;;;;;;;32.73;34.55;100170.17;1755898;80;25806;-62
2023/09/18 11:59:46;;;;;;;5.33;4.83;;;;;;;32.70;34.67;100166.89;1756714;81;25538;-60
2023/09/18 12:02:27;;;;;;;5.37;4.87;;;;;;;32.83;35.15;100165.96;1756833;81;25625;-61
2023/09/18 12:04:57;;;;;;;6.08;5.47;;;;;;;32.70;34.71;100171.72;1756866;81;27500;-62
2023/09/18 12:07:26;;;;;;;6.28;5.67;;;;;;;32.21;34.68;100173.30;1734906;81;25683;-63
2023/09/18 12:09:54;;;;;;;6.85;5.42;;;;;;;31.69;35.28;100159.55;1759943;81;35208;-63
2023/09/18 12:12:22;;;;;;;5.70;5.20;;;;;;;31.68;35.68;100169.19;1759510;81;25784;-63
2023/09/18 12:14:53;;;;;;;6.55;5.78;;;;;;;31.78;36.59;100162.41;1759762;81;25373;-63
2023/09/18 12:17:20;;;;;;;5.67;5.17;;;;;;;32.06;36.59;100154.14;1759585;81;27465;-63
2023/09/18 12:19:56;;;;;;;5.70;5.20;;;;;;;32.06;36.59;100154.14;1759125;81;25558;-63
2023/09/18 12:22:32;;;;;;;8.08;6.10;;;;;;;32.19;36.33;100159.77;1759183;81;25395;-63
2023/09/18 12:25:16;;;;;;;6.58;5.97;;;;;;;32.20;35.51;100154.98;1758981;81;25385;-63
2023/09/18 12:27:49;;;;;;;6.15;5.55;;;;;;;32.19;34.94;100148.58;1759262;81;25655;-63
2023/09/18 12:30:20;;;;;;;6.55;5.90;;;;;;;32.15;35.40;100160.55;1755259;81;27472;-62
2023/09/18 12:32:45;;;;;;;6.67;6.03;;;;;;;32.41;35.73;100137.91;1755010;81;25466;-63
2023/09/18 12:35:18;;;;;;;6.65;5.97;;;;;;;32.71;34.97;100153.66;1759393;81;30227;-62
2023/09/18 12:37:49;;;;;;;7.25;6.05;;;;;;;32.61;34.74;100131.91;1759161;81;25730;-63
2023/09/18 12:40:32;;;;;;;7.00;6.40;;;;;;;32.73;35.01;100134.40;1759123;81;25554;-61
2023/09/18 12:43:03;;;;;;;6.72;5.95;;;;;;;32.97;34.82;100123.34;1755907;81;28279;-62
2023/09/18 12:45:34;;;;;;;6.42;5.80;;;;;;;33.05;34.28;100123.78;1759085;81;25540;-62
2023/09/18 12:48:05;;;;;;;7.15;6.42;;;;;;;33.03;34.40;100124.87;1759077;81;25576;-62
2023/09/18 12:50:32;;;;;;;6.70;6.10;;;;;;;33.02;34.67;100121.31;1759179;81;25488;-62
2023/09/18 12:53:17;;;;;;;7.03;6.42;;;;;;;33.13;34.47;100114.61;1759264;81;25566;-62
2023/09/18 12:55:43;;;;;;;6.12;5.53;;;;;;;33.10;33.89;100118.95;1725781;81;27478;-61
2023/09/18 12:58:21;;;;;;;7.75;6.28;;;;;;;32.86;33.87;100116.02;1759137;81;25617;-62
2023/09/18 13:00:50;;;;;;;10.65;6.53;;;;;;;32.72;33.76;100114.63;1759193;81;25381;-61
2023/09/18 13:03:18;;;;;;;6.97;5.83;;;;;;;32.61;33.95;100098.91;1759042;81;25762;-61
2023/09/18 13:05:48;;;;;;;7.25;6.55;;;;;;;32.70;34.58;100103.90;1759245;81;25559;-61
2023/09/18 13:08:16;;;;;;;6.62;6.03;;;;;;;32.83;34.69;100103.75;1727707;81;27570;-62
2023/09/18 13:10:52;;;;;;;6.65;5.85;;;;;;;32.85;34.66;100094.89;1782326;80;25677;-63
2023/09/18 13:13:25;;;;;;;7.20;6.50;;;;;;;32.89;34.08;100088.48;1756341;81;25447;-63
2023/09/18 13:15:56;;;;;;;7.53;6.22;;;;;;;32.78;33.83;100078.38;1787369;80;25561;-64
2023/09/18 13:18:23;;;;;;;7.37;6.67;;;;;;;32.65;33.39;100076.53;1754924;81;25630;-63
2023/09/18 13:20:54;;;;;;;7.00;6.05;;;;;;;32.40;34.23;100083.17;1787529;80;27500;-63
2023/09/18 13:23:32;;;;;;;6.80;6.22;;;;;;;32.39;34.32;100072.61;1756136;81;25450;-62
2023/09/18 13:26:05;;;;;;;6.25;5.75;;;;;;;32.47;34.75;100071.69;1787137;80;25545;-63
2023/09/18 13:28:39;;;;;;;7.25;6.55;;;;;;;32.56;33.68;100063.28;1755935;81;26078;-62
2023/09/18 13:31:09;;;;;;;6.33;5.83;;;;;;;32.43;34.38;100066.09;1783054;80;25582;-63
2023/09/18 13:33:40;;;;;;;7.12;6.08;;;;;;;32.54;34.88;100058.78;1726332;81;27746;-62
2023/09/18 13:36:06;;;;;;;6.83;6.33;;;;;;;32.80;34.23;100052.11;1786766;80;25785;-61
2023/09/18 13:38:33;;;;;;;7.20;6.50;;;;;;;32.61;33.83;100058.33;1756192;81;25633;-62
2023/09/18 13:40:59;;;;;;;6.87;6.25;;;;;;;32.48;33.78;100059.23;1787045;80;25625;-61
2023/09/18 13:43:27;;;;;;;7.65;6.40;;;;;;;32.43;33.90;100048.66;1756251;81;25549;-58
2023/09/18 13:45:58;;;;;;;7.12;6.53;;;;;;;32.60;34.17;100047.73;1787320;80;27489;-57
2023/09/18 13:48:26;;;;;;;8.30;6.33;;;;;;;32.68;33.72;100041.23;1756038;81;25257;-58
2023/09/18 13:50:54;;;;;;;6.35;5.70;;;;;;;32.59;33.88;100039.20;1787019;80;25531;-59
2023/09/18 13:53:21;;;;;;;6.87;6.25;;;;;;;32.34;33.45;100038.25;1756062;81;34744;-57
2023/09/18 13:55:49;;;;;;;8.55;6.50;;;;;;;32.24;34.08;100027.53;1787516;80;25381;-60
2023/09/18 13:58:16;;;;;;;8.63;6.62;;;;;;;32.20;33.60;100020.06;1787416;80;27481;-60
2023/09/18 14:00:43;;;;;;;7.67;6.62;;;;;;;32.20;34.08;100012.30;1755962;81;27311;-62
2023/09/18 14:03:15;;;;;;;6.90;6.15;;;;;;;32.29;33.97;100010.13;1756098;81;25653;-62
2023/09/18 14:05:41;;;;;;;6.80;6.25;;;;;;;32.22;33.57;100011.20;1756078;81;27370;-61
2023/09/18 14:08:08;;;;;;;8.13;6.20;;;;;;;32.06;33.36;100004.50;1760070;81;25751;-61
2023/09/18 14:10:38;;;;;;;6.90;5.58;;;;;;;31.86;33.73;100011.89;1761857;81;28105;-61
2023/09/18 14:13:04;;;;;;;6.70;6.00;;;;;;;31.70;33.43;100000.37;1761877;81;25553;-60
2023/09/18 14:15:31;;;;;;;6.15;5.53;;;;;;;31.46;33.61;100003.69;1761963;81;25520;-60
2023/09/18 14:17:57;;;;;;;7.05;5.28;;;;;;;31.33;34.28;100002.42;1761829;81;25499;-60
2023/09/18 14:20:23;;;;;;;5.92;5.42;;;;;;;31.36;34.76;99990.30;1761958;81;25585;-60
2023/09/18 14:22:49;;;;;;;6.33;5.72;;;;;;;31.47;34.35;99999.67;1761934;81;28072;-61
2023/09/18 14:25:19;;;;;;;6.25;5.65;;;;;;;31.12;34.56;99988.66;1761867;81;25553;-60
2023/09/18 14:27:46;;;;;;;7.65;6.08;;;;;;;31.12;34.56;99988.66;1761975;81;25353;-62
2023/09/18 14:30:35;;;;;;;7.42;6.58;;;;;;;30.85;34.54;99982.28;1761908;81;26227;-62
2023/09/18 14:33:02;;;;;;;7.67;6.08;;;;;;;30.85;34.54;99982.28;1691687;84;25641;-62
2023/09/18 14:35:29;;;;;;;7.22;6.60;;;;;;;30.67;34.53;99971.80;1668885;86;28272;-62
2023/09/18 14:37:57;;;;;;;6.80;6.10;;;;;;;30.58;35.25;99971.72;1693505;84;25658;-62
2023/09/18 14:40:24;;;;;;;10.97;7.23;;;;;;;30.56;34.98;99976.98;1693889;84;25663;-62
2023/09/18 14:42:50;;;;;;;7.28;6.58;;;;;;;30.48;35.02;99975.09;1693656;84;25414;-62